createdAt,value
2017-11-19T00:01:53.720Z,81.70
2017-11-19T00:04:21.305Z,81.70
2017-11-19T00:06:49.307Z,81.80
2017-11-19T00:09:16.970Z,82.10
2017-11-19T00:11:44.507Z,82.00
2017-11-19T00:14:12.115Z,81.70
2017-11-19T00:16:40.418Z,81.90
2017-11-19T00:19:08.027Z,81.80
2017-11-19T00:21:35.583Z,82.00
2017-11-19T00:24:04.975Z,81.40
2017-11-19T00:26:32.507Z,81.40
2017-11-19T00:29:00.059Z,81.60
2017-11-19T00:31:27.842Z,81.50
2017-11-19T00:33:55.402Z,81.40
2017-11-19T00:36:23.107Z,81.50
2017-11-19T00:38:51.434Z,81.30
2017-11-19T00:41:21.065Z,81.30
2017-11-19T00:43:48.612Z,81.40
2017-11-19T00:46:16.284Z,81.40
2017-11-19T00:48:43.872Z,81.20
2017-11-19T00:51:12.193Z,81.10
2017-11-19T00:53:39.840Z,81.00
2017-11-19T00:56:07.391Z,81.20
2017-11-19T00:58:35.219Z,81.30
2017-11-19T01:01:02.751Z,81.30
2017-11-19T01:03:30.314Z,81.40
2017-11-19T01:05:57.914Z,81.30
2017-11-19T01:08:25.452Z,81.20
2017-11-19T01:10:53.468Z,81.00
2017-11-19T01:13:21.038Z,81.00
2017-11-19T01:15:48.590Z,81.10
2017-11-19T01:18:16.167Z,81.00
2017-11-19T01:20:43.711Z,81.10
2017-11-19T01:23:11.288Z,81.00
2017-11-19T01:25:38.840Z,80.90
2017-11-19T01:28:06.831Z,80.80
2017-11-19T01:30:34.373Z,80.90
2017-11-19T01:33:01.920Z,81.10
2017-11-19T01:35:29.512Z,80.90
2017-11-19T01:37:57.030Z,80.90
2017-11-19T01:40:24.793Z,81.00
2017-11-19T01:42:53.090Z,80.80
2017-11-19T01:45:21.087Z,80.80
2017-11-19T01:47:49.500Z,80.40
2017-11-19T01:50:17.047Z,80.10
2017-11-19T01:52:44.633Z,80.00
2017-11-19T01:55:12.178Z,80.40
2017-11-19T01:57:40.522Z,80.10
2017-11-19T02:00:08.059Z,80.10
2017-11-19T02:02:35.946Z,80.20
2017-11-19T02:05:03.488Z,80.40
2017-11-19T02:07:31.027Z,80.00
2017-11-19T02:09:58.635Z,80.00
2017-11-19T02:12:26.182Z,80.10
2017-11-19T02:14:53.768Z,80.00
2017-11-19T02:17:22.825Z,80.00
2017-11-19T02:19:50.679Z,80.00
2017-11-19T02:22:18.270Z,80.00
2017-11-19T02:24:45.824Z,79.90
2017-11-19T02:27:14.738Z,80.00
2017-11-19T02:29:42.508Z,80.00
2017-11-19T02:32:10.866Z,79.90
2017-11-19T02:34:38.410Z,79.90
2017-11-19T02:37:06.305Z,80.00
2017-11-19T02:39:33.841Z,80.00
2017-11-19T02:42:01.406Z,80.00
2017-11-19T02:44:29.009Z,80.30
2017-11-19T02:46:56.554Z,80.30
2017-11-19T02:49:24.904Z,80.50
2017-11-19T02:51:52.468Z,80.40
2017-11-19T02:54:20.311Z,80.30
2017-11-19T02:56:47.852Z,80.00
2017-11-19T02:59:15.399Z,80.20
2017-11-19T03:01:42.977Z,80.50
2017-11-19T03:04:10.509Z,80.90
2017-11-19T03:06:38.353Z,80.80
2017-11-19T03:09:05.912Z,80.70
2017-11-19T03:11:33.877Z,80.80
2017-11-19T03:14:01.410Z,80.80
2017-11-19T03:16:28.955Z,80.80
2017-11-19T03:18:56.563Z,80.60
2017-11-19T03:21:24.873Z,80.60
2017-11-19T03:23:52.450Z,80.50
2017-11-19T03:26:20.002Z,80.40
2017-11-19T03:28:47.848Z,80.50
2017-11-19T03:31:15.404Z,80.50
2017-11-19T03:33:42.950Z,80.80
2017-11-19T03:36:11.311Z,80.80
2017-11-19T03:38:40.372Z,80.80
2017-11-19T03:41:07.966Z,80.80
2017-11-19T03:43:35.654Z,80.70
2017-11-19T03:46:04.279Z,81.00
2017-11-19T03:48:31.795Z,80.90
2017-11-19T03:51:00.106Z,80.80
2017-11-19T03:53:27.706Z,80.70
2017-11-19T03:55:55.246Z,80.70
2017-11-19T03:58:22.810Z,80.70
2017-11-19T04:03:24.471Z,80.60
2017-11-19T04:05:52.116Z,80.50
2017-11-19T04:08:19.659Z,80.50
2017-11-19T04:10:47.251Z,80.60
2017-11-19T04:13:14.791Z,80.80
2017-11-19T04:15:42.367Z,80.50
2017-11-19T04:18:09.934Z,80.50
2017-11-19T04:20:37.905Z,80.60
2017-11-19T04:23:05.448Z,80.70
2017-11-19T04:25:32.988Z,80.70
2017-11-19T04:28:00.957Z,80.50
2017-11-19T04:30:28.497Z,80.30
2017-11-19T04:32:56.110Z,79.80
2017-11-19T04:35:23.653Z,80.10
2017-11-19T04:37:51.220Z,80.30
2017-11-19T04:40:18.768Z,79.80
2017-11-19T04:42:47.262Z,79.70
2017-11-19T04:45:14.822Z,79.70
2017-11-19T04:47:42.373Z,79.60
2017-11-19T04:50:09.965Z,79.60
2017-11-19T04:52:39.083Z,79.70
2017-11-19T04:55:06.655Z,79.80
2017-11-19T04:57:34.963Z,80.40
2017-11-19T05:00:02.941Z,80.40
2017-11-19T05:02:30.500Z,80.30
2017-11-19T05:04:58.046Z,80.30
2017-11-19T05:07:25.692Z,80.30
2017-11-19T05:09:53.232Z,80.40
2017-11-19T05:12:21.586Z,80.50
2017-11-19T05:14:50.632Z,80.50
2017-11-19T05:17:18.543Z,80.50
2017-11-19T05:19:46.080Z,80.50
2017-11-19T05:22:13.623Z,80.60
2017-11-19T05:24:41.212Z,80.70
2017-11-19T05:27:08.750Z,80.80
2017-11-19T05:29:36.325Z,80.80
2017-11-19T05:32:03.867Z,80.80
2017-11-19T05:34:31.839Z,80.90
2017-11-19T05:36:59.387Z,80.90
2017-11-19T05:39:26.927Z,80.90
2017-11-19T05:41:54.496Z,80.80
2017-11-19T05:44:22.051Z,80.70
2017-11-19T05:46:49.638Z,80.90
2017-11-19T05:49:17.169Z,81.00
2017-11-19T05:51:45.059Z,81.00
2017-11-19T05:54:12.591Z,81.10
2017-11-19T05:56:40.127Z,81.00
2017-11-19T05:59:07.698Z,81.10
2017-11-19T06:01:36.016Z,81.10
2017-11-19T06:04:03.620Z,81.10
2017-11-19T06:06:31.925Z,81.20
2017-11-19T06:08:59.981Z,81.20
2017-11-19T06:11:28.285Z,81.30
2017-11-19T06:13:55.828Z,81.30
2017-11-19T06:16:23.427Z,81.40
2017-11-19T06:18:50.989Z,81.40
2017-11-19T06:21:18.600Z,81.50
2017-11-19T06:23:46.134Z,81.50
2017-11-19T06:26:14.190Z,81.70
2017-11-19T06:28:41.725Z,81.50
2017-11-19T06:31:09.269Z,81.40
2017-11-19T06:33:36.890Z,81.60
2017-11-19T06:36:04.461Z,81.20
2017-11-19T06:38:33.005Z,81.20
2017-11-19T06:41:00.551Z,81.20
2017-11-19T06:43:28.420Z,80.90
2017-11-19T06:45:56.214Z,81.10
2017-11-19T06:48:23.760Z,80.90
2017-11-19T06:50:51.336Z,81.10
2017-11-19T06:53:18.860Z,80.90
2017-11-19T06:55:46.455Z,80.90
2017-11-19T06:58:15.532Z,81.20
2017-11-19T07:00:43.501Z,81.20
2017-11-19T07:03:11.042Z,81.20
2017-11-19T07:05:38.580Z,81.00
2017-11-19T07:08:06.151Z,81.10
2017-11-19T07:10:33.730Z,81.20
2017-11-19T07:13:01.340Z,81.20
2017-11-19T07:15:29.064Z,81.00
2017-11-19T07:17:56.930Z,81.20
2017-11-19T07:20:24.479Z,81.20
2017-11-19T07:22:52.072Z,81.20
2017-11-19T07:25:20.418Z,81.00
2017-11-19T07:27:47.955Z,80.90
2017-11-19T07:30:15.538Z,80.80
2017-11-19T07:32:43.091Z,80.80
2017-11-19T07:35:10.961Z,80.80
2017-11-19T07:37:38.489Z,80.40
2017-11-19T07:40:06.022Z,80.40
2017-11-19T07:42:33.603Z,80.60
2017-11-19T07:45:01.165Z,80.70
2017-11-19T07:47:28.907Z,80.00
2017-11-19T07:49:56.579Z,80.00
2017-11-19T07:52:24.587Z,80.00
2017-11-19T07:54:52.142Z,79.60
2017-11-19T07:57:19.695Z,79.50
2017-11-19T07:59:47.287Z,79.50
2017-11-19T08:02:14.828Z,79.50
2017-11-19T08:04:42.503Z,79.60
2017-11-19T08:07:11.967Z,79.70
2017-11-19T08:09:39.832Z,79.80
2017-11-19T08:12:07.377Z,79.90
2017-11-19T08:14:34.943Z,80.00
2017-11-19T08:17:02.569Z,79.90
2017-11-19T08:19:30.116Z,79.40
2017-11-19T08:21:57.699Z,78.90
2017-11-19T08:24:25.233Z,78.30
2017-11-19T08:26:53.088Z,78.20
2017-11-19T08:29:20.642Z,77.60
2017-11-19T08:31:48.192Z,77.30
2017-11-19T08:34:15.801Z,77.10
2017-11-19T08:36:43.341Z,76.80
2017-11-19T08:39:10.941Z,76.80
2017-11-19T08:41:38.498Z,76.80
2017-11-19T08:44:06.527Z,76.80
2017-11-19T08:46:34.087Z,76.70
2017-11-19T08:49:01.665Z,76.70
2017-11-19T08:51:30.014Z,76.80
2017-11-19T08:53:57.576Z,76.70
2017-11-19T08:56:25.162Z,76.70
2017-11-19T08:58:52.694Z,76.70
2017-11-19T09:01:20.755Z,76.70
2017-11-19T09:03:48.310Z,76.60
2017-11-19T09:06:16.008Z,76.60
2017-11-19T09:08:43.597Z,76.50
2017-11-19T09:11:11.143Z,76.40
2017-11-19T09:13:38.743Z,76.80
2017-11-19T09:16:06.290Z,76.90
2017-11-19T09:18:34.282Z,77.20
2017-11-19T09:21:01.817Z,77.20
2017-11-19T09:23:29.345Z,77.60
2017-11-19T09:25:56.924Z,77.60
2017-11-19T09:28:27.441Z,77.30
2017-11-19T09:30:55.090Z,76.70
2017-11-19T09:33:22.703Z,76.50
2017-11-19T09:35:50.588Z,76.80
2017-11-19T09:38:18.158Z,77.00
2017-11-19T09:40:45.712Z,77.20
2017-11-19T09:43:13.305Z,77.20
2017-11-19T09:45:40.851Z,77.10
2017-11-19T09:48:09.495Z,77.00
2017-11-19T09:50:37.050Z,77.00
2017-11-19T09:53:04.589Z,77.00
2017-11-19T09:55:32.482Z,76.90
2017-11-19T09:58:00.030Z,77.20
2017-11-19T10:00:28.016Z,77.20
2017-11-19T10:02:55.570Z,77.50
2017-11-19T10:05:23.116Z,76.80
2017-11-19T10:07:50.707Z,76.80
2017-11-19T10:10:18.253Z,76.50
2017-11-19T10:12:46.118Z,76.80
2017-11-19T10:15:13.677Z,76.90
2017-11-19T10:17:41.217Z,76.70
2017-11-19T10:20:08.798Z,76.50
2017-11-19T10:22:36.363Z,76.50
2017-11-19T10:25:03.944Z,76.90
2017-11-19T10:27:32.470Z,76.50
2017-11-19T10:30:00.350Z,76.40
2017-11-19T10:32:27.882Z,75.90
2017-11-19T10:34:55.427Z,76.20
2017-11-19T10:37:23.131Z,76.50
2017-11-19T10:39:50.685Z,76.10
2017-11-19T10:42:18.664Z,75.80
2017-11-19T10:44:46.210Z,76.10
2017-11-19T10:47:13.759Z,76.30
2017-11-19T10:49:41.363Z,76.10
2017-11-19T10:52:08.922Z,76.40
2017-11-19T10:54:37.006Z,75.80
2017-11-19T10:57:04.559Z,75.80
2017-11-19T10:59:32.113Z,76.30
2017-11-19T11:01:59.719Z,75.90
2017-11-19T11:04:28.068Z,75.80
2017-11-19T11:06:56.715Z,75.50
2017-11-19T11:09:24.262Z,75.40
2017-11-19T11:11:51.826Z,75.50
2017-11-19T11:14:19.419Z,75.60
2017-11-19T11:16:48.486Z,75.50
2017-11-19T11:19:16.463Z,75.50
2017-11-19T11:21:44.045Z,75.20
2017-11-19T11:24:11.626Z,75.50
2017-11-19T11:26:40.016Z,75.20
2017-11-19T11:29:07.588Z,75.20
2017-11-19T11:31:35.453Z,75.20
2017-11-19T11:34:03.037Z,75.10
2017-11-19T11:36:30.720Z,75.10
2017-11-19T11:38:58.434Z,74.50
2017-11-19T11:41:25.975Z,75.00
2017-11-19T11:43:53.913Z,75.50
2017-11-19T11:46:21.485Z,75.20
2017-11-19T11:48:49.039Z,75.20
2017-11-19T11:51:16.653Z,75.10
2017-11-19T11:53:44.201Z,75.30
2017-11-19T11:56:11.799Z,75.20
2017-11-19T11:58:39.385Z,75.40
2017-11-19T12:01:07.344Z,74.90
2017-11-19T12:03:35.711Z,75.20
2017-11-19T12:06:03.279Z,75.00
2017-11-19T12:08:30.870Z,75.40
2017-11-19T12:10:58.429Z,75.20
2017-11-19T12:13:26.797Z,74.90
2017-11-19T12:15:54.334Z,74.80
2017-11-19T12:18:22.430Z,75.20
2017-11-19T12:20:50.744Z,75.60
2017-11-19T12:23:18.317Z,75.50
2017-11-19T12:25:45.905Z,75.40
2017-11-19T12:28:13.456Z,75.50
2017-11-19T12:30:41.050Z,75.30
2017-11-19T12:33:08.598Z,75.30
2017-11-19T12:35:37.255Z,75.90
2017-11-19T12:38:04.814Z,75.90
2017-11-19T12:40:32.387Z,75.90
2017-11-19T12:43:00.250Z,76.40
2017-11-19T12:45:27.944Z,76.10
2017-11-19T12:47:56.511Z,76.20
2017-11-19T12:50:24.068Z,76.20
2017-11-19T12:52:52.741Z,76.20
2017-11-19T12:55:20.339Z,75.80
2017-11-19T12:57:47.899Z,76.10
2017-11-19T13:00:16.273Z,76.50
2017-11-19T13:02:43.828Z,76.40
2017-11-19T13:05:12.346Z,76.90
2017-11-19T13:07:39.913Z,77.00
2017-11-19T13:10:08.029Z,77.10
2017-11-19T13:12:36.366Z,77.10
2017-11-19T13:15:03.967Z,77.00
2017-11-19T13:17:32.329Z,77.10
2017-11-19T13:20:01.388Z,77.10
2017-11-19T13:22:28.955Z,77.00
2017-11-19T13:24:56.517Z,77.30
2017-11-19T13:27:24.672Z,79.10
2017-11-19T13:29:52.219Z,79.50
2017-11-19T13:32:19.781Z,81.60
2017-11-19T13:34:47.376Z,81.70
2017-11-19T13:37:14.930Z,82.50
2017-11-19T13:39:42.799Z,82.60
2017-11-19T13:42:10.368Z,82.90
2017-11-19T13:44:42.589Z,83.40
2017-11-19T13:47:10.346Z,85.70
2017-11-19T13:49:38.658Z,86.00
2017-11-19T13:52:06.662Z,86.00
2017-11-19T13:54:34.511Z,86.00
2017-11-19T13:57:02.224Z,87.00
2017-11-19T13:59:29.843Z,86.70
2017-11-19T14:01:57.402Z,86.90
2017-11-19T14:04:24.984Z,87.20
2017-11-19T14:06:53.296Z,87.20
2017-11-19T14:09:21.345Z,87.00
2017-11-19T14:11:49.666Z,86.90
2017-11-19T14:14:17.232Z,86.90
2017-11-19T14:16:44.828Z,86.70
2017-11-19T14:19:12.418Z,86.30
2017-11-19T14:21:40.011Z,86.90
2017-11-19T14:24:07.555Z,87.50
2017-11-19T14:26:35.540Z,86.60
2017-11-19T14:29:03.094Z,86.90
2017-11-19T14:31:30.636Z,86.90
2017-11-19T14:33:58.219Z,86.40
2017-11-19T14:36:25.787Z,87.10
2017-11-19T14:38:53.373Z,87.40
2017-11-19T14:41:21.219Z,87.80
2017-11-19T14:43:49.182Z,87.90
2017-11-19T14:46:16.744Z,87.30
2017-11-19T14:48:44.300Z,87.20
2017-11-19T14:51:11.892Z,87.60
2017-11-19T14:53:39.443Z,87.50
2017-11-19T14:56:07.020Z,87.90
2017-11-19T14:58:34.570Z,88.10
2017-11-19T15:01:02.954Z,88.80
2017-11-19T15:03:30.520Z,88.70
2017-11-19T15:06:00.109Z,89.20
2017-11-19T15:08:27.746Z,89.20
2017-11-19T15:10:55.319Z,89.30
2017-11-19T15:13:22.890Z,89.70
2017-11-19T15:15:50.451Z,89.70
2017-11-19T15:18:18.795Z,90.00
2017-11-19T15:20:46.374Z,90.00
2017-11-19T15:23:14.431Z,90.10
2017-11-19T15:25:42.202Z,90.10
2017-11-19T15:28:09.755Z,90.00
2017-11-19T15:30:37.353Z,90.30
2017-11-19T15:33:04.904Z,90.40
2017-11-19T15:35:33.267Z,90.80
2017-11-19T15:38:00.818Z,90.50
2017-11-19T15:40:28.683Z,90.20
2017-11-19T15:42:56.251Z,90.20
2017-11-19T15:45:23.797Z,90.20
2017-11-19T15:47:52.322Z,90.30
2017-11-19T15:50:20.652Z,90.50
2017-11-19T15:52:48.235Z,90.50
2017-11-19T15:55:16.755Z,90.50
2017-11-19T15:57:44.678Z,90.50
2017-11-19T16:00:12.302Z,90.60
2017-11-19T16:02:39.931Z,90.60
2017-11-19T16:05:08.297Z,90.80
2017-11-19T16:07:35.833Z,90.70
2017-11-19T16:10:03.412Z,90.60
2017-11-19T16:12:30.953Z,90.50
2017-11-19T16:14:59.046Z,90.50
2017-11-19T16:17:27.374Z,90.50
2017-11-19T16:19:54.972Z,90.50
2017-11-19T16:22:22.573Z,90.60
2017-11-19T16:24:50.168Z,90.50
2017-11-19T16:27:17.766Z,90.30
2017-11-19T16:29:46.094Z,90.00
2017-11-19T16:32:13.709Z,90.00
2017-11-19T16:34:42.032Z,90.00
2017-11-19T16:37:09.865Z,90.00
2017-11-19T16:39:37.426Z,89.50
2017-11-19T16:42:04.971Z,89.90
2017-11-19T16:44:32.566Z,89.90
2017-11-19T16:47:00.307Z,90.10
2017-11-19T16:49:28.315Z,90.50
2017-11-19T16:51:55.933Z,90.60
2017-11-19T16:54:23.473Z,90.50
2017-11-19T16:56:51.042Z,91.00
2017-11-19T16:59:19.361Z,91.20
2017-11-19T17:01:46.972Z,91.20
2017-11-19T17:04:15.302Z,91.00
2017-11-19T17:06:43.274Z,91.00
2017-11-19T17:09:10.907Z,90.90
2017-11-19T17:11:38.464Z,91.30
2017-11-19T17:14:06.055Z,90.80
2017-11-19T17:16:33.920Z,90.80
2017-11-19T17:19:01.513Z,90.80
2017-11-19T17:21:30.567Z,90.90
2017-11-19T17:23:58.584Z,90.80
2017-11-19T17:26:26.929Z,91.00
2017-11-19T17:28:54.537Z,90.70
2017-11-19T17:31:23.069Z,90.70
2017-11-19T17:33:50.633Z,90.70
2017-11-19T17:36:23.786Z,90.70
2017-11-19T17:38:51.348Z,90.70
2017-11-19T17:41:19.354Z,90.80
2017-11-19T17:43:46.916Z,90.90
2017-11-19T17:46:14.489Z,91.00
2017-11-19T17:48:42.157Z,91.10
2017-11-19T17:51:09.845Z,91.20
2017-11-19T17:53:37.422Z,91.20
2017-11-19T17:56:04.978Z,91.10
2017-11-19T17:58:32.572Z,91.00
2017-11-19T18:01:00.262Z,90.80
2017-11-19T18:03:27.822Z,90.90
2017-11-19T18:05:55.612Z,90.80
2017-11-19T18:08:23.198Z,90.90
2017-11-19T18:10:50.756Z,90.80
2017-11-19T18:13:18.342Z,90.80
2017-11-19T18:15:45.904Z,90.90
2017-11-19T18:18:13.501Z,90.70
2017-11-19T18:20:41.824Z,90.80
2017-11-19T18:23:09.446Z,90.80
2017-11-19T18:25:37.071Z,91.20
2017-11-19T18:30:38.544Z,91.20
2017-11-19T18:33:06.098Z,91.20
2017-11-19T18:35:33.704Z,91.20
2017-11-19T18:38:01.368Z,91.20
2017-11-19T18:40:29.041Z,91.10
2017-11-19T18:42:57.047Z,91.10
2017-11-19T18:45:24.632Z,91.10
2017-11-19T18:47:52.178Z,91.10
2017-11-19T18:50:19.772Z,91.10
2017-11-19T18:52:47.324Z,90.90
2017-11-19T18:55:15.678Z,91.00
2017-11-19T18:57:43.223Z,91.00
2017-11-19T19:00:10.825Z,90.90
2017-11-19T19:02:38.384Z,90.90
2017-11-19T19:05:07.241Z,91.00
2017-11-19T19:07:34.901Z,91.00
2017-11-19T19:10:02.460Z,91.20
2017-11-19T19:12:31.755Z,91.70
2017-11-19T19:14:59.318Z,91.70
2017-11-19T19:17:26.939Z,91.80
2017-11-19T19:19:55.090Z,91.90
2017-11-19T19:22:23.726Z,92.30
2017-11-19T19:24:51.295Z,92.30
2017-11-19T19:27:18.858Z,92.50
2017-11-19T19:29:46.468Z,92.10
2017-11-19T19:32:14.018Z,92.10
2017-11-19T19:34:41.624Z,92.20
2017-11-19T19:37:09.677Z,92.20
2017-11-19T19:39:37.561Z,92.80
2017-11-19T19:42:05.135Z,93.00
2017-11-19T19:44:32.706Z,93.00
2017-11-19T19:47:00.303Z,93.00
2017-11-19T19:49:29.391Z,93.40
2017-11-19T19:51:57.858Z,93.40
2017-11-19T19:54:25.428Z,93.30
2017-11-19T19:56:53.444Z,93.40
2017-11-19T19:59:21.033Z,93.50
2017-11-19T20:01:48.588Z,93.70
2017-11-19T20:04:16.171Z,93.70
2017-11-19T20:06:43.722Z,93.70
2017-11-19T20:09:12.295Z,93.90
2017-11-19T20:11:39.861Z,93.80
2017-11-19T20:14:08.511Z,93.80
2017-11-19T20:16:37.166Z,93.80
2017-11-19T20:19:04.767Z,93.90
2017-11-19T20:21:32.912Z,94.00
2017-11-19T20:24:00.472Z,93.80
2017-11-19T20:26:28.075Z,93.90
2017-11-19T20:28:56.046Z,93.90
2017-11-19T20:31:24.724Z,93.80
2017-11-19T20:33:52.367Z,93.70
2017-11-19T20:36:20.016Z,94.00
2017-11-19T20:38:47.948Z,93.50
2017-11-19T20:41:15.517Z,93.50
2017-11-19T20:43:43.294Z,93.40
2017-11-19T20:46:11.770Z,93.40
2017-11-19T20:48:39.710Z,93.40
2017-11-19T20:51:09.265Z,93.20
2017-11-19T20:53:36.839Z,93.20
2017-11-19T20:56:04.444Z,93.30
2017-11-19T20:58:32.045Z,93.30
2017-11-19T21:00:59.659Z,93.20
2017-11-19T21:03:28.642Z,93.00
2017-11-19T21:05:56.579Z,93.00
2017-11-19T21:08:24.177Z,93.00
2017-11-19T21:10:52.516Z,93.00
2017-11-19T21:13:20.271Z,93.00
2017-11-19T21:15:47.863Z,93.00
2017-11-19T21:18:15.820Z,93.00
2017-11-19T21:20:43.396Z,92.50
2017-11-19T21:23:12.251Z,92.40
2017-11-19T21:25:39.817Z,92.40
2017-11-19T21:28:07.367Z,92.20
2017-11-19T21:30:34.998Z,91.90
2017-11-19T21:33:02.585Z,92.00
2017-11-19T21:35:30.571Z,91.80
2017-11-19T21:38:00.643Z,91.70
2017-11-19T21:40:29.233Z,91.70
2017-11-19T21:42:56.856Z,91.30
2017-11-19T21:45:25.394Z,91.20
2017-11-19T21:47:53.138Z,91.20
2017-11-19T21:50:20.920Z,91.20
2017-11-19T21:52:53.253Z,91.20
2017-11-19T21:55:21.619Z,91.20
2017-11-19T21:57:49.178Z,91.20
2017-11-19T22:00:17.527Z,90.80
2017-11-19T22:02:45.074Z,90.80
2017-11-19T22:05:12.652Z,90.70
2017-11-19T22:07:40.310Z,90.70
2017-11-19T22:10:08.344Z,90.60
2017-11-19T22:12:35.972Z,90.50
2017-11-19T22:15:04.294Z,90.20
2017-11-19T22:17:31.946Z,90.10
2017-11-19T22:19:59.487Z,90.10
2017-11-19T22:22:27.064Z,90.30
2017-11-19T22:24:54.614Z,90.10
2017-11-19T22:27:22.522Z,90.20
2017-11-19T22:29:50.094Z,90.30
2017-11-19T22:32:18.439Z,90.40
2017-11-19T22:34:46.052Z,90.40
2017-11-19T22:37:14.687Z,90.50
2017-11-19T22:39:42.292Z,90.50
2017-11-19T22:42:09.837Z,90.30
2017-11-19T22:44:37.898Z,90.10
2017-11-19T22:47:05.603Z,89.40
2017-11-19T22:49:35.393Z,89.70
2017-11-19T22:52:03.229Z,89.70
2017-11-19T22:54:31.793Z,90.00
2017-11-19T22:56:59.370Z,89.80
2017-11-19T22:59:26.918Z,89.50
2017-11-19T23:01:54.778Z,89.40
2017-11-19T23:04:23.463Z,89.80
2017-11-19T23:06:51.068Z,90.00
2017-11-19T23:09:18.655Z,90.00
2017-11-19T23:11:46.972Z,89.80
2017-11-19T23:14:14.639Z,89.80
2017-11-19T23:16:42.422Z,89.80
2017-11-19T23:19:10.578Z,90.00
2017-11-19T23:21:40.656Z,90.00
2017-11-19T23:24:08.207Z,89.70
2017-11-19T23:26:35.927Z,89.60
2017-11-19T23:29:03.466Z,90.00
2017-11-19T23:31:31.092Z,89.80
2017-11-19T23:33:59.411Z,89.60
2017-11-19T23:36:27.609Z,89.70
2017-11-19T23:38:55.202Z,89.20
2017-11-19T23:41:22.746Z,89.40
2017-11-19T23:43:51.096Z,89.60
2017-11-19T23:46:18.740Z,89.50
2017-11-19T23:48:46.325Z,89.50
2017-11-19T23:51:13.871Z,89.80
2017-11-19T23:53:41.445Z,89.10
2017-11-19T23:56:09.034Z,88.80
2017-11-19T23:58:37.162Z,89.00
